»·PEaware :: AAY430 KLAS-KRNO

AAY430 :: KLAS-KRNO

FLIGHT INFORMATION

Flight Status: Arrived
Operator:
Allegiant Air
More flights by this operator :: More flights under this callsign
Pilot: Patricio R. (14780)
Aircraft: MCDONNELL-DOUGLAS MD-88
(MD88)
More flights by this aircraft type
Origin: KLAS McCarran Intl
United States
Destination: KRNO Reno/Tahoe Intl
United States
More flights between these airports :: More routes between these airports
Route: SHEAD1 KENNO KENNO2
File this flight plan on PilotEdge
Remarks: PBN / A1B2 DOF / 171129 REG / N888SB EET / KZOA0024 OPR / AAY PER / C RMK / TCAS SIMBRIEF
Altitude:
(Current/Filed)
32,000ft
Speed:
(Current/Filed)
443kts
Departed: 29-Nov-17 03:25 PM
Arrived: 29-Nov-17 04:30 PM
Distance/Time
Traveled:
300nm/1:05
Distance/Time
To Go:
Arrived

Flight Plot

Page will automatically refresh every two minutes.

Flight plan parsing failed; only flown route is shown


Map Options




Map Legend


Flown Route
Filed Route
Departure Airport
Arrival Airport
Navaid (VOR, NDB)
Fix

Horizontal Profiles

Position Reports

Time Latitude Longitude Heading Altitude Ground
Speed
29-Nov-17 15:05 36.083706 -115.152326 119 2117ft 0kts
29-Nov-17 15:06 36.083706 -115.152326 119 2117ft 0kts
29-Nov-17 15:07 36.083706 -115.152326 119 2117ft 0kts
29-Nov-17 15:08 36.083706 -115.152326 119 2117ft 0kts
29-Nov-17 15:09 36.083706 -115.152326 119 2117ft 0kts
29-Nov-17 15:10 36.083706 -115.152326 119 2117ft 0kts
29-Nov-17 15:11 36.083706 -115.152326 119 2117ft 0kts
29-Nov-17 15:12 36.083706 -115.152326 119 2117ft 0kts
29-Nov-17 15:13 36.083706 -115.152326 119 2117ft 0kts
29-Nov-17 15:14 36.083706 -115.152326 119 2117ft 0kts
29-Nov-17 15:15 36.083706 -115.152326 119 2117ft 0kts
29-Nov-17 15:16 36.083706 -115.152326 119 2117ft 0kts
29-Nov-17 15:17 36.083706 -115.152326 119 2117ft 0kts
29-Nov-17 15:18 36.083706 -115.152326 119 2117ft 0kts
29-Nov-17 15:19 36.083820 -115.152572 119 2117ft 2kts
29-Nov-17 15:20 36.084073 -115.153097 133 2117ft 2kts
29-Nov-17 15:21 36.084124 -115.153400 248 2117ft 3kts
29-Nov-17 15:22 36.084093 -115.153509 249 2117ft 0kts
29-Nov-17 15:23 36.083810 -115.154315 245 2117ft 3kts
29-Nov-17 15:24 36.083893 -115.157485 244 2117ft 13kts
29-Nov-17 15:25 36.082398 -115.160598 204 2117ft 20kts
29-Nov-17 15:26 36.077896 -115.163170 204 2117ft 0kts
29-Nov-17 15:27 36.075536 -115.164522 204 2117ft 26kts
29-Nov-17 15:28 36.073893 -115.165919 268 2117ft 0kts
29-Nov-17 15:29 36.074015 -115.166589 288 2117ft 14kts
29-Nov-17 15:30 36.090687 -115.158071 24 2118ft 161kts
29-Nov-17 15:31 36.135936 -115.139534 336 3875ft 185kts
29-Nov-17 15:32 36.128610 -115.186742 212 5455ft 194kts
29-Nov-17 15:33 36.111229 -115.258685 258 7088ft 245kts
29-Nov-17 15:34 36.065572 -115.314437 200 9015ft 271kts
29-Nov-17 15:35 35.992301 -115.350174 202 8989ft 287kts
29-Nov-17 15:36 35.918896 -115.388007 203 9009ft 286kts
29-Nov-17 15:37 35.882184 -115.461137 277 10239ft 290kts
29-Nov-17 15:38 35.888087 -115.562401 272 10982ft 299kts
29-Nov-17 15:39 35.890492 -115.656273 270 11064ft 301kts
29-Nov-17 15:40 35.892247 -115.760651 270 13079ft 318kts
29-Nov-17 15:41 35.893956 -115.870333 271 15297ft 324kts
29-Nov-17 15:42 35.903525 -115.980590 299 17303ft 328kts
29-Nov-17 15:43 35.969375 -116.057781 319 18956ft 333kts
29-Nov-17 15:44 36.039344 -116.137282 317 20282ft 350kts
29-Nov-17 15:45 36.110687 -116.219854 314 22030ft 354kts
29-Nov-17 15:46 36.180502 -116.301054 315 24076ft 344kts
29-Nov-17 15:47 36.250913 -116.382642 315 25418ft 352kts
29-Nov-17 15:48 36.323241 -116.466422 315 26642ft 361kts
29-Nov-17 15:49 36.397010 -116.551804 315 27845ft 366kts
29-Nov-17 15:50 36.471328 -116.638169 314 29026ft 368kts
29-Nov-17 15:51 36.544876 -116.724511 314 30046ft 372kts
29-Nov-17 15:52 36.629746 -116.798405 325 31067ft 376kts
29-Nov-17 15:53 36.718870 -116.866309 324 32064ft 375kts
29-Nov-17 15:54 36.809628 -116.935993 325 32167ft 392kts
29-Nov-17 15:55 36.903819 -117.008258 325 32158ft 402kts
29-Nov-17 15:56 36.998674 -117.081007 325 32152ft 401kts
29-Nov-17 15:57 37.093392 -117.153616 325 32232ft 401kts
29-Nov-17 15:58 37.187017 -117.225358 326 32237ft 400kts
29-Nov-17 15:59 37.281453 -117.298376 324 32236ft 399kts
29-Nov-17 16:00 37.368150 -117.384786 318 32236ft 397kts
29-Nov-17 16:01 37.452014 -117.474471 318 32234ft 397kts
29-Nov-17 16:02 37.540578 -117.556965 326 32233ft 399kts
29-Nov-17 16:03 37.634277 -117.632204 332 32228ft 404kts
29-Nov-17 16:04 37.729359 -117.708021 331 32234ft 411kts
29-Nov-17 16:05 37.825130 -117.784900 331 32232ft 409kts
29-Nov-17 16:06 37.921176 -117.861994 331 32232ft 409kts
29-Nov-17 16:07 38.017063 -117.938928 331 32231ft 409kts
29-Nov-17 16:08 38.112304 -118.015034 329 31553ft 423kts
29-Nov-17 16:09 38.209980 -118.093541 328 30561ft 411kts
29-Nov-17 16:10 38.305379 -118.170004 328 29553ft 403kts
29-Nov-17 16:11 38.399467 -118.245353 328 28554ft 399kts
29-Nov-17 16:12 38.481494 -118.338594 317 27551ft 395kts
29-Nov-17 16:13 38.559659 -118.435899 317 26541ft 391kts
29-Nov-17 16:14 38.637110 -118.531912 318 25529ft 387kts
29-Nov-17 16:15 38.713812 -118.626880 318 24517ft 383kts
29-Nov-17 16:16 38.788500 -118.719788 317 23520ft 378kts
29-Nov-17 16:17 38.863034 -118.813098 317 22308ft 372kts
29-Nov-17 16:18 38.935717 -118.904071 316 20786ft 359kts
29-Nov-17 16:19 39.005453 -118.991275 316 19273ft 349kts
29-Nov-17 16:20 39.074031 -119.076960 316 17748ft 338kts
29-Nov-17 16:21 39.139089 -119.159108 315 16235ft 326kts
29-Nov-17 16:22 39.200678 -119.236905 316 15549ft 304kts
29-Nov-17 16:23 39.260734 -119.312950 315 14045ft 301kts
29-Nov-17 16:24 39.320164 -119.388245 315 12556ft 299kts
29-Nov-17 16:25 39.382347 -119.457662 325 11445ft 290kts
29-Nov-17 16:26 39.444797 -119.515429 324 10288ft 261kts
29-Nov-17 16:27 39.500330 -119.566728 331 10027ft 238kts
29-Nov-17 16:28 39.564433 -119.589527 345 9994ft 242kts
29-Nov-17 16:29 39.629453 -119.612524 344 9737ft 243kts
29-Nov-17 16:30 39.670100 -119.663484 266 8614ft 223kts
29-Nov-17 16:31 39.660326 -119.737462 243 7456ft 200kts
29-Nov-17 16:32 39.617595 -119.769103 181 6754ft 188kts
29-Nov-17 16:33 39.569124 -119.768958 180 5578ft 168kts
29-Nov-17 16:34 39.523619 -119.769116 180 4690ft 164kts
29-Nov-17 16:35 39.493408 -119.769564 197 4415ft 16kts
29-Nov-17 16:36 39.492577 -119.771146 286 4415ft 4kts
29-Nov-17 16:37 39.496739 -119.771520 359 4415ft 23kts
29-Nov-17 16:38 39.502816 -119.771503 0 4415ft 15kts
29-Nov-17 16:39 39.504399 -119.772236 318 4415ft 0kts
29-Nov-17 16:40 39.504469 -119.772316 318 4415ft 0kts

Navigation Log

Ident Type
Flight plan parsing failed, navigation log unavailable